Eckert, CO

9:33 AM MDT on August 20, 2014 (GMT -0600)
Walker | Change Station
CLOSE
Current Station
Airport
Location: Grand Junction,
Elevation: 4856 ft
Nearby Weather Stations

Elev 4856 ft 39.13 °N, 108.54 °W | Updated 40 minutes ago

Scattered Clouds
Scattered Clouds
64 °F
Feels Like 64 °F
N
0
Wind Variable Wind from North

Today
High -- | Low -- °F
--% Chance of Precip.
Yesterday
High -- | Low -- °F
Precip. -- in
6:30 AM 7:59 PM
Waning Crescent, 21% visible
Pressure 29.90 in
Visibility 10.0 miles
Clouds Scattered Clouds 6000 ft
Dew Point 61 °F
Humidity 90%
Rainfall 0.00 in
Snow Depth 0 in , 0 in
UV 2 out of 12
Pollen 5.60 out of 12
Air Quality Not available.
Flu Activity Not available.
METAR KGJT 201453Z 00000KT 10SM SCT060 18/16 A3004 RMK AO2 SLP123 T01780161 51011

More Conditions Fewer Conditions

Pressure 29.90 in
Visibility 10.0 miles
Clouds Scattered Clouds 6000 ft
Dew Point 61 °F
Humidity 90%
Rainfall 0.00 in
Snow Depth 0 in , 0 in
UV 2 out of 12
Pollen 5.60 out of 12
Air Quality Not available.
Flu Activity Not available.
METAR KGJT 201453Z 00000KT 10SM SCT060 18/16 A3004 RMK AO2 SLP123 T01780161 51011

More Conditions Fewer Conditions

10-Day Weather Forecast

Almanac

Astronomy

Aug. 20, 2014 Rise Set
Actual Time 6:30 AM MDT 7:59 PM MDT
Civil Twilight 6:02 AM MDT 8:27 PM MDT
Nautical Twilight 5:28 AM MDT 9:01 PM MDT
Astronomical Twilight 4:52 AM MDT 9:36 PM MDT
Moon 2:13 AM MDT 4:46 PM MDT
Length of Visible Light 14h 25m
Length of Day
13h 29m
Tomorrow will be 2m 18s shorter.
Waning Crescent, 21% of the Moon is Illuminated
Today
Waning Crescent
Aug 25
New
Sep 2
First Quarter
Sep 8
Full
Sep 15
Last Quarter

Today's Extremes

State Highs State Lows

Community

WunderPhotos

Upload Photos

1,745,667 photos uploaded!

WunderBlogs® & News

Nearby

Snow Depth

Station Depth Elevation
Park Reservoir 0 in 9960 ft
Mesa Lakes 0 in 10000 ft
Overland Reservoir 0 in 9880 ft
Columbine Pass 0 in 9400 ft
McClure Pass 0 in 9500 ft

Earthquake Activity

City Distance Mag. Time & Date
No recent earthquake activity has been reported nearby.
Minimum magnitude displayed is 2.5.

Coastal Water Temperatures

Place Temperature
No Stations Reporting

Nearby Weather Stations